createdAt,value
2017-12-26T00:00:20.444Z,99575.26
2017-12-26T00:01:26.189Z,99574.41
2017-12-26T00:02:31.912Z,99573.45
2017-12-26T00:03:38.404Z,99570.44
2017-12-26T00:04:44.153Z,99571.36
2017-12-26T00:05:49.895Z,99563.23
2017-12-26T00:06:55.628Z,99556.33
2017-12-26T00:08:01.363Z,99555.94
2017-12-26T00:09:06.766Z,99549.41
2017-12-26T00:10:13.296Z,99545.55
2017-12-26T00:11:19.011Z,99548.62
2017-12-26T00:12:24.738Z,99539.89
2017-12-26T00:13:30.460Z,99536.45
2017-12-26T00:14:36.196Z,99539.89
2017-12-26T00:15:41.958Z,99536.92
2017-12-26T00:16:47.702Z,99531.70
2017-12-26T00:17:53.443Z,99532.52
2017-12-26T00:18:59.266Z,99530.80
2017-12-26T00:20:04.674Z,99531.20
2017-12-26T00:21:11.193Z,99532.47
2017-12-26T00:22:16.923Z,99523.00
2017-12-26T00:23:22.699Z,99527.83
2017-12-26T00:24:28.431Z,99523.09
2017-12-26T00:25:34.181Z,99520.91
2017-12-26T00:26:39.932Z,99516.56
2017-12-26T00:27:45.663Z,99518.71
2017-12-26T00:28:51.418Z,99515.35
2017-12-26T00:29:57.719Z,99516.70
2017-12-26T00:31:03.461Z,99516.73
2017-12-26T00:32:09.208Z,99517.58
2017-12-26T00:33:15.022Z,99511.52
2017-12-26T00:34:21.491Z,99508.88
2017-12-26T00:35:27.196Z,99508.12
2017-12-26T00:36:33.690Z,99502.08
2017-12-26T00:37:39.437Z,99507.33
2017-12-26T00:38:45.156Z,99511.17
2017-12-26T00:39:51.656Z,99507.36
2017-12-26T00:40:57.387Z,99501.34
2017-12-26T00:42:03.122Z,99498.77
2017-12-26T00:43:08.907Z,99495.78
2017-12-26T00:44:14.686Z,99502.70
2017-12-26T00:45:20.419Z,99495.35
2017-12-26T00:46:26.911Z,99495.72
2017-12-26T00:47:32.647Z,99493.52
2017-12-26T00:48:38.396Z,99485.05
2017-12-26T00:49:44.120Z,99492.02
2017-12-26T00:50:49.844Z,99489.39
2017-12-26T00:51:55.588Z,99487.13
2017-12-26T00:53:02.051Z,99493.62
2017-12-26T00:54:07.794Z,99496.20
2017-12-26T00:55:13.504Z,99495.86
2017-12-26T00:56:19.245Z,99495.02
2017-12-26T00:57:24.995Z,99497.47
2017-12-26T00:58:31.496Z,99492.81
2017-12-26T00:59:37.220Z,99491.20
2017-12-26T01:00:42.950Z,99489.50
2017-12-26T01:01:49.420Z,99492.21
2017-12-26T01:02:55.145Z,99485.27
2017-12-26T01:04:01.665Z,99487.44
2017-12-26T01:05:07.414Z,99481.83
2017-12-26T01:06:13.138Z,99475.84
2017-12-26T01:07:18.856Z,99470.67
2017-12-26T01:08:24.565Z,99474.14
2017-12-26T01:09:31.044Z,99474.23
2017-12-26T01:10:36.805Z,99468.61
2017-12-26T01:11:42.546Z,99472.03
2017-12-26T01:12:48.253Z,99462.52
2017-12-26T01:13:54.759Z,99460.42
2017-12-26T01:15:00.466Z,99466.41
2017-12-26T01:16:06.215Z,99465.05
2017-12-26T01:17:11.933Z,99467.63
2017-12-26T01:18:18.421Z,99465.47
2017-12-26T01:19:24.149Z,99461.58
2017-12-26T01:20:29.872Z,99471.83
2017-12-26T01:21:35.609Z,99467.91
2017-12-26T01:22:42.122Z,99473.86
2017-12-26T01:23:47.838Z,99472.17
2017-12-26T01:24:53.544Z,99467.34
2017-12-26T01:26:00.039Z,99459.55
2017-12-26T01:27:05.782Z,99463.11
2017-12-26T01:28:11.491Z,99466.95
2017-12-26T01:29:17.995Z,99460.05
2017-12-26T01:30:23.932Z,99466.52
2017-12-26T01:31:29.665Z,99465.14
2017-12-26T01:32:35.411Z,99467.56
2017-12-26T01:33:41.134Z,99467.52
2017-12-26T01:34:46.854Z,99475.73
2017-12-26T01:35:53.352Z,99473.16
2017-12-26T01:36:59.725Z,99467.52
2017-12-26T01:38:05.483Z,99467.20
2017-12-26T01:39:11.227Z,99471.94
2017-12-26T01:40:18.453Z,99470.25
2017-12-26T01:41:24.181Z,99463.45
2017-12-26T01:42:29.911Z,99457.77
2017-12-26T01:43:36.482Z,99458.62
2017-12-26T01:44:42.199Z,99451.16
2017-12-26T01:45:47.912Z,99453.31
2017-12-26T01:46:55.163Z,99453.31
2017-12-26T01:48:00.891Z,99450.71
2017-12-26T01:49:06.651Z,99447.27
2017-12-26T01:50:12.375Z,99442.61
2017-12-26T01:51:18.116Z,99437.41
2017-12-26T01:52:23.570Z,99436.59
2017-12-26T01:53:29.285Z,99436.59
2017-12-26T01:54:35.038Z,99437.86
2017-12-26T01:55:40.754Z,99439.41
2017-12-26T01:56:47.246Z,99440.29
2017-12-26T01:57:52.982Z,99433.83
2017-12-26T01:58:58.710Z,99429.48
2017-12-26T02:00:04.463Z,99421.17
2017-12-26T02:01:10.177Z,99429.73
2017-12-26T02:02:16.661Z,99429.70
2017-12-26T02:03:22.391Z,99429.81
2017-12-26T02:04:28.121Z,99426.84
2017-12-26T02:05:34.632Z,99432.50
2017-12-26T02:06:40.359Z,99424.65
2017-12-26T02:07:47.588Z,99422.02
2017-12-26T02:08:54.070Z,99421.05
2017-12-26T02:09:59.806Z,99420.30
2017-12-26T02:11:05.545Z,99418.91
2017-12-26T02:12:11.381Z,99415.47
2017-12-26T02:13:16.899Z,99415.02
2017-12-26T02:14:23.377Z,99413.31
2017-12-26T02:15:29.867Z,99412.02
2017-12-26T02:16:35.604Z,99411.14
2017-12-26T02:17:41.328Z,99404.29
2017-12-26T02:18:47.063Z,99405.13
2017-12-26T02:19:53.558Z,99399.94
2017-12-26T02:20:59.290Z,99396.50
2017-12-26T02:22:05.012Z,99398.22
2017-12-26T02:23:10.728Z,99393.89
2017-12-26T02:24:17.209Z,99399.55
2017-12-26T02:25:22.949Z,99398.72
2017-12-26T02:26:28.720Z,99399.55
2017-12-26T02:27:34.477Z,99397.80
2017-12-26T02:28:40.232Z,99398.70
2017-12-26T02:29:45.949Z,99396.50
2017-12-26T02:30:51.679Z,99393.08
2017-12-26T02:31:57.428Z,99396.61
2017-12-26T02:33:03.200Z,99395.73
2017-12-26T02:34:08.913Z,99396.64
2017-12-26T02:35:14.629Z,99388.84
2017-12-26T02:36:20.328Z,99388.42
2017-12-26T02:37:26.811Z,99396.19
2017-12-26T02:38:32.558Z,99390.11
2017-12-26T02:39:38.073Z,99390.20
2017-12-26T02:40:44.592Z,99387.94
2017-12-26T02:41:50.301Z,99386.61
2017-12-26T02:42:56.043Z,99386.25
2017-12-26T02:44:01.776Z,99384.49
2017-12-26T02:45:07.488Z,99374.98
2017-12-26T02:46:13.210Z,99376.80
2017-12-26T02:47:18.934Z,99374.50
2017-12-26T02:48:24.667Z,99368.94
2017-12-26T02:49:30.423Z,99363.38
2017-12-26T02:50:36.124Z,99363.23
2017-12-26T02:51:41.852Z,99363.66
2017-12-26T02:52:47.578Z,99358.63
2017-12-26T02:53:54.063Z,99364.77
2017-12-26T02:54:59.816Z,99363.04
2017-12-26T02:56:05.524Z,99365.70
2017-12-26T02:57:12.034Z,99356.24
2017-12-26T02:58:17.756Z,99359.30
2017-12-26T02:59:23.479Z,99352.38
2017-12-26T03:00:29.989Z,99351.83
2017-12-26T03:01:35.692Z,99355.73
2017-12-26T03:02:41.394Z,99349.20
2017-12-26T03:03:47.887Z,99349.63
2017-12-26T03:04:53.632Z,99345.86
2017-12-26T03:05:59.175Z,99344.58
2017-12-26T03:07:04.889Z,99344.13
2017-12-26T03:08:11.357Z,99339.39
2017-12-26T03:09:17.180Z,99338.03
2017-12-26T03:10:23.651Z,99341.02
2017-12-26T03:11:29.381Z,99344.98
2017-12-26T03:12:35.884Z,99341.95
2017-12-26T03:13:41.597Z,99343.68
2017-12-26T03:14:47.318Z,99340.52
2017-12-26T03:15:53.814Z,99338.73
2017-12-26T03:16:59.553Z,99328.77
2017-12-26T03:18:05.271Z,99332.63
2017-12-26T03:19:10.985Z,99335.98
2017-12-26T03:20:17.487Z,99335.50
2017-12-26T03:21:23.206Z,99334.62
2017-12-26T03:22:28.956Z,99329.43
2017-12-26T03:23:34.739Z,99330.67
2017-12-26T03:24:40.791Z,99326.27
2017-12-26T03:25:46.529Z,99326.66
2017-12-26T03:26:52.263Z,99322.33
2017-12-26T03:27:58.008Z,99319.65
2017-12-26T03:29:03.727Z,99316.95
2017-12-26T03:30:09.441Z,99314.72
2017-12-26T03:31:15.179Z,99320.19
2017-12-26T03:32:21.683Z,99320.13
2017-12-26T03:33:27.425Z,99319.28
2017-12-26T03:34:33.172Z,99317.44
2017-12-26T03:35:38.900Z,99316.99
2017-12-26T03:36:44.642Z,99316.02
2017-12-26T03:37:50.388Z,99315.09
2017-12-26T03:38:56.152Z,99310.70
2017-12-26T03:40:01.866Z,99309.89
2017-12-26T03:41:07.602Z,99307.71
2017-12-26T03:42:13.308Z,99300.82
2017-12-26T03:43:19.031Z,99296.86
2017-12-26T03:44:25.542Z,99295.47
2017-12-26T03:45:31.275Z,99289.49
2017-12-26T03:46:37.010Z,99291.13
2017-12-26T03:47:42.753Z,99291.91
2017-12-26T03:48:48.476Z,99293.66
2017-12-26T03:49:54.221Z,99286.58
2017-12-26T03:51:00.001Z,99283.98
2017-12-26T03:52:05.712Z,99288.76
2017-12-26T03:53:11.429Z,99286.13
2017-12-26T03:54:18.000Z,99292.95
2017-12-26T03:55:23.743Z,99281.30
2017-12-26T03:56:29.469Z,99280.02
2017-12-26T03:57:35.952Z,99277.84
2017-12-26T03:58:41.697Z,99282.17
2017-12-26T03:59:47.445Z,99280.48
2017-12-26T04:00:53.175Z,99273.11
2017-12-26T04:01:58.897Z,99274.86
2017-12-26T04:03:05.399Z,99268.78
2017-12-26T04:04:11.131Z,99259.23
2017-12-26T04:05:16.865Z,99264.83
2017-12-26T04:06:22.613Z,99262.61
2017-12-26T04:07:28.335Z,99264.37
2017-12-26T04:08:34.063Z,99265.22
2017-12-26T04:09:40.574Z,99263.46
2017-12-26T04:10:46.309Z,99254.30
2017-12-26T04:11:52.041Z,99256.90
2017-12-26T04:12:57.774Z,99258.27
2017-12-26T04:14:03.505Z,99255.98
2017-12-26T04:15:09.243Z,99257.74
2017-12-26T04:16:15.012Z,99258.14
2017-12-26T04:17:20.757Z,99250.38
2017-12-26T04:18:26.488Z,99253.84
2017-12-26T04:19:32.222Z,99255.08
2017-12-26T04:20:37.967Z,99256.45
2017-12-26T04:21:43.712Z,99241.79
2017-12-26T04:22:49.479Z,99249.95
2017-12-26T04:23:55.216Z,99256.48
2017-12-26T04:25:00.946Z,99245.11
2017-12-26T04:26:06.676Z,99248.91
2017-12-26T04:27:12.427Z,99248.10
2017-12-26T04:28:18.170Z,99251.67
2017-12-26T04:29:23.911Z,99249.46
2017-12-26T04:30:29.629Z,99244.72
2017-12-26T04:31:35.363Z,99245.17
2017-12-26T04:32:41.095Z,99240.52
2017-12-26T04:33:46.873Z,99239.71
2017-12-26T04:34:52.594Z,99238.02
2017-12-26T04:35:58.333Z,99231.48
2017-12-26T04:37:04.085Z,99229.28
2017-12-26T04:38:10.253Z,99228.86
2017-12-26T04:39:16.016Z,99232.82
2017-12-26T04:40:21.746Z,99230.70
2017-12-26T04:41:27.466Z,99237.33
2017-12-26T04:42:33.204Z,99227.84
2017-12-26T04:43:38.940Z,99225.89
2017-12-26T04:44:44.676Z,99218.97
2017-12-26T04:45:50.415Z,99230.69
2017-12-26T04:46:56.152Z,99224.26
2017-12-26T04:48:01.877Z,99229.25
2017-12-26T04:49:07.619Z,99217.50
2017-12-26T04:50:13.369Z,99221.55
2017-12-26T04:51:19.100Z,99220.73
2017-12-26T04:52:24.836Z,99217.72
2017-12-26T04:53:31.352Z,99217.75
2017-12-26T04:54:37.096Z,99216.45
2017-12-26T04:55:42.867Z,99216.94
2017-12-26T04:56:49.360Z,99214.73
2017-12-26T04:57:55.100Z,99211.80
2017-12-26T04:59:00.847Z,99213.97
2017-12-26T05:00:06.588Z,99211.80
2017-12-26T05:01:12.330Z,99205.63
2017-12-26T05:02:18.147Z,99211.64
2017-12-26T05:03:24.618Z,99203.00
2017-12-26T05:04:30.340Z,99208.69
2017-12-26T05:05:36.847Z,99209.56
2017-12-26T05:06:42.602Z,99206.02
2017-12-26T05:07:48.346Z,99202.97
2017-12-26T05:08:54.087Z,99212.94
2017-12-26T05:09:59.810Z,99211.13
2017-12-26T05:11:05.524Z,99211.88
2017-12-26T05:12:11.308Z,99208.44
2017-12-26T05:13:17.872Z,99209.73
2017-12-26T05:14:24.352Z,99209.28
2017-12-26T05:15:30.851Z,99210.09
2017-12-26T05:16:36.599Z,99209.25
2017-12-26T05:17:42.341Z,99205.84
2017-12-26T05:18:48.067Z,99206.26
2017-12-26T05:19:53.795Z,99207.10
2017-12-26T05:20:59.556Z,99204.50
2017-12-26T05:22:05.276Z,99204.05
2017-12-26T05:23:11.043Z,99202.30
2017-12-26T05:24:16.756Z,99199.77
2017-12-26T05:25:22.481Z,99197.16
2017-12-26T05:26:28.978Z,99202.03
2017-12-26T05:27:34.690Z,99204.66
2017-12-26T05:28:40.446Z,99195.17
2017-12-26T05:29:46.215Z,99196.09
2017-12-26T05:30:51.948Z,99193.91
2017-12-26T05:31:57.667Z,99196.93
2017-12-26T05:33:03.381Z,99194.33
2017-12-26T05:34:09.962Z,99191.73
2017-12-26T05:35:15.689Z,99190.50
2017-12-26T05:36:22.183Z,99189.66
2017-12-26T05:37:27.927Z,99188.32
2017-12-26T05:38:33.657Z,99183.55
2017-12-26T05:39:39.401Z,99186.11
2017-12-26T05:40:45.122Z,99183.64
2017-12-26T05:41:51.621Z,99177.18
2017-12-26T05:42:57.343Z,99176.76
2017-12-26T05:44:03.074Z,99178.91
2017-12-26T05:45:08.836Z,99172.83
2017-12-26T05:46:14.549Z,99173.70
2017-12-26T05:47:20.286Z,99171.89
2017-12-26T05:48:26.012Z,99165.45
2017-12-26T05:49:32.497Z,99169.72
2017-12-26T05:50:38.240Z,99166.66
2017-12-26T05:51:43.958Z,99161.92
2017-12-26T05:52:50.450Z,99161.14
2017-12-26T05:53:56.173Z,99158.41
2017-12-26T05:55:02.013Z,99152.41
2017-12-26T05:56:07.762Z,99152.77
2017-12-26T05:57:13.512Z,99150.16
2017-12-26T05:58:19.267Z,99153.58
2017-12-26T05:59:25.028Z,99148.34
2017-12-26T06:00:30.768Z,99149.97
2017-12-26T06:01:36.536Z,99150.46
2017-12-26T06:02:43.047Z,99146.20
2017-12-26T06:03:48.767Z,99142.31
2017-12-26T06:04:54.494Z,99144.91
2017-12-26T06:06:00.987Z,99138.86
2017-12-26T06:07:06.737Z,99132.82
2017-12-26T06:08:12.466Z,99138.90
2017-12-26T06:09:18.207Z,99133.28
2017-12-26T06:10:23.950Z,99132.82
2017-12-26T06:11:29.672Z,99130.62
2017-12-26T06:12:35.431Z,99124.87
2017-12-26T06:13:41.381Z,99119.67
2017-12-26T06:14:47.115Z,99123.99
2017-12-26T06:15:52.863Z,99117.05
2017-12-26T06:16:58.859Z,99111.36
2017-12-26T06:18:05.446Z,99106.65
2017-12-26T06:19:11.183Z,99109.60
2017-12-26T06:20:16.897Z,99108.30
2017-12-26T06:21:23.711Z,99109.15
2017-12-26T06:22:29.431Z,99105.67
2017-12-26T06:23:35.199Z,99106.52
2017-12-26T06:24:40.603Z,99107.39
2017-12-26T06:25:46.339Z,99099.02
2017-12-26T06:26:52.843Z,99094.66
2017-12-26T06:27:58.584Z,99094.47
2017-12-26T06:29:04.337Z,99091.80
2017-12-26T06:30:10.061Z,99091.73
2017-12-26T06:31:15.777Z,99087.73
2017-12-26T06:32:21.517Z,99089.88
2017-12-26T06:33:27.236Z,99088.94
2017-12-26T06:34:33.748Z,99084.13
2017-12-26T06:35:39.459Z,99081.89
2017-12-26T06:36:45.204Z,99085.23
2017-12-26T06:37:50.933Z,99084.31
2017-12-26T06:38:56.687Z,99077.72
2017-12-26T06:40:02.563Z,99081.66
2017-12-26T06:41:08.357Z,99081.13
2017-12-26T06:42:14.077Z,99079.34
2017-12-26T06:43:20.579Z,99081.48
2017-12-26T06:44:26.317Z,99077.48
2017-12-26T06:45:32.080Z,99073.13
2017-12-26T06:46:37.837Z,99076.16
2017-12-26T06:47:43.555Z,99076.12
2017-12-26T06:48:49.299Z,99081.35
2017-12-26T06:49:55.032Z,99073.48
2017-12-26T06:51:00.774Z,99074.33
2017-12-26T06:52:06.506Z,99072.05
2017-12-26T06:53:12.231Z,99066.40
2017-12-26T06:54:17.963Z,99072.44
2017-12-26T06:55:24.472Z,99069.25
2017-12-26T06:56:30.231Z,99065.77
2017-12-26T06:57:35.957Z,99070.45
2017-12-26T06:58:41.690Z,99069.53
2017-12-26T06:59:47.436Z,99069.60
2017-12-26T07:00:53.151Z,99059.13
2017-12-26T07:01:58.918Z,99061.70
2017-12-26T07:03:04.656Z,99064.16
2017-12-26T07:04:10.383Z,99064.09
2017-12-26T07:05:16.119Z,99061.88
2017-12-26T07:06:21.837Z,99059.60
2017-12-26T07:07:28.350Z,99059.14
2017-12-26T07:08:34.108Z,99058.63
2017-12-26T07:09:39.272Z,99057.39
2017-12-26T07:10:44.988Z,99059.08
2017-12-26T07:11:51.576Z,99061.29
2017-12-26T07:12:57.336Z,99062.13
2017-12-26T07:14:03.060Z,99050.01
2017-12-26T07:15:08.786Z,99054.33
2017-12-26T07:16:15.271Z,99051.52
2017-12-26T07:17:21.020Z,99052.41
2017-12-26T07:18:26.779Z,99055.07
2017-12-26T07:19:37.950Z,99058.97
2017-12-26T07:20:49.111Z,99056.37
2017-12-26T07:22:00.305Z,99049.45
2017-12-26T07:23:06.040Z,99053.80
2017-12-26T07:24:11.801Z,99049.88
2017-12-26T07:25:18.280Z,99047.20
2017-12-26T07:26:24.048Z,99049.31
2017-12-26T07:27:29.585Z,99045.41
2017-12-26T07:28:35.302Z,99035.89
2017-12-26T07:29:40.894Z,99033.25
2017-12-26T07:30:47.397Z,99033.70
2017-12-26T07:31:53.108Z,99035.36
2017-12-26T07:32:59.611Z,99027.52
2017-12-26T07:34:05.352Z,99032.69
2017-12-26T07:35:11.101Z,99032.16
2017-12-26T07:36:16.834Z,99029.91
2017-12-26T07:37:22.542Z,99024.68
2017-12-26T07:38:29.118Z,99021.16
2017-12-26T07:39:34.841Z,99026.23
2017-12-26T07:40:41.347Z,99015.41
2017-12-26T07:41:47.066Z,99018.84
2017-12-26T07:42:52.791Z,99017.02
2017-12-26T07:43:59.291Z,99015.54
2017-12-26T07:45:04.674Z,99019.86
2017-12-26T07:46:11.190Z,99012.83
2017-12-26T07:47:16.935Z,99015.02
2017-12-26T07:48:22.662Z,99018.24
2017-12-26T07:49:28.407Z,99003.97
2017-12-26T07:50:34.124Z,99013.04
2017-12-26T07:51:39.912Z,99005.63
2017-12-26T07:52:46.513Z,99007.66
2017-12-26T07:53:52.676Z,99005.98
2017-12-26T07:54:58.423Z,99006.50
2017-12-26T07:56:04.162Z,99006.36
2017-12-26T07:57:09.918Z,98996.34
2017-12-26T07:58:15.651Z,98998.48
2017-12-26T07:59:21.360Z,98999.75
2017-12-26T08:00:28.800Z,98994.58
2017-12-26T08:01:34.527Z,98992.89
2017-12-26T08:02:40.323Z,99003.05
2017-12-26T08:03:46.104Z,98989.97
2017-12-26T08:04:51.715Z,98996.55
2017-12-26T08:05:57.442Z,98991.66
2017-12-26T08:07:03.916Z,98990.70
2017-12-26T08:08:10.435Z,98982.59
2017-12-26T08:09:16.156Z,98983.47
2017-12-26T08:10:21.893Z,98983.32
2017-12-26T08:11:27.626Z,98980.27
2017-12-26T08:12:33.375Z,98974.59
2017-12-26T08:13:39.130Z,98979.38
2017-12-26T08:14:44.867Z,98979.38
2017-12-26T08:15:50.577Z,98975.86
2017-12-26T08:16:56.310Z,98972.37
2017-12-26T08:18:02.045Z,98976.28
2017-12-26T08:19:08.740Z,98975.90
2017-12-26T08:20:14.463Z,98966.69
2017-12-26T08:21:20.183Z,98969.64
2017-12-26T08:22:26.491Z,98967.80
2017-12-26T08:23:32.229Z,98975.92
2017-12-26T08:24:37.970Z,98968.05
2017-12-26T08:25:43.683Z,98969.73
2017-12-26T08:26:49.717Z,98970.00
2017-12-26T08:27:55.484Z,98969.78
2017-12-26T08:29:01.202Z,98970.59
2017-12-26T08:30:07.705Z,98973.84
2017-12-26T08:31:13.422Z,98968.50
2017-12-26T08:32:19.892Z,98962.72
2017-12-26T08:33:25.629Z,98963.14
2017-12-26T08:34:31.358Z,98958.67
2017-12-26T08:35:37.874Z,98973.41
2017-12-26T08:36:43.609Z,98960.85
2017-12-26T08:37:49.335Z,98964.26
2017-12-26T08:38:55.064Z,98969.84
2017-12-26T08:40:00.822Z,98966.29
2017-12-26T08:41:07.085Z,98966.70
2017-12-26T08:42:12.812Z,98977.86
2017-12-26T08:43:18.825Z,98968.70
2017-12-26T08:44:25.303Z,98974.19
2017-12-26T08:45:31.261Z,98972.89
2017-12-26T08:46:37.136Z,98975.10
2017-12-26T08:47:43.858Z,98971.31
2017-12-26T08:48:49.586Z,98974.30
2017-12-26T08:49:55.324Z,98972.08
2017-12-26T08:51:01.123Z,98973.73
2017-12-26T08:52:06.876Z,98965.38
2017-12-26T08:53:12.610Z,98963.58
2017-12-26T08:54:18.325Z,98963.36
2017-12-26T08:55:24.051Z,98965.89
2017-12-26T08:56:29.797Z,98965.84
2017-12-26T08:57:35.579Z,98968.54
2017-12-26T08:58:41.291Z,98965.55
2017-12-26T08:59:47.016Z,98962.14
2017-12-26T09:00:52.721Z,98957.20
2017-12-26T09:01:59.200Z,98966.16
2017-12-26T09:03:05.732Z,98967.63
2017-12-26T09:04:12.336Z,98959.76
2017-12-26T09:05:18.276Z,98956.50
2017-12-26T09:06:24.103Z,98953.47
2017-12-26T09:07:29.928Z,98944.57
2017-12-26T09:08:37.812Z,98940.28
2017-12-26T09:09:44.875Z,98950.11
2017-12-26T09:10:51.461Z,98941.41
2017-12-26T09:11:58.017Z,98944.77
2017-12-26T09:13:04.595Z,98947.67
2017-12-26T09:14:10.443Z,98939.34
2017-12-26T09:15:16.243Z,98950.39
2017-12-26T09:16:22.244Z,98937.59
2017-12-26T09:17:28.460Z,98951.30
2017-12-26T09:18:35.330Z,98937.62
2017-12-26T09:19:42.215Z,98940.43
2017-12-26T09:20:48.031Z,98943.80
2017-12-26T09:21:54.758Z,98942.23
2017-12-26T09:23:00.555Z,98933.77
2017-12-26T09:24:06.623Z,98933.00
2017-12-26T09:25:13.285Z,98928.73
2017-12-26T09:26:23.236Z,98927.23
2017-12-26T09:27:29.566Z,98933.79
2017-12-26T09:28:35.373Z,98932.69
2017-12-26T09:29:41.572Z,98929.89
2017-12-26T09:30:48.215Z,98932.25
2017-12-26T09:31:54.181Z,98925.44
2017-12-26T09:33:00.057Z,98923.64
2017-12-26T09:34:05.793Z,98923.64
2017-12-26T09:35:11.535Z,98923.72
2017-12-26T09:36:17.304Z,98914.02
2017-12-26T09:37:23.024Z,98909.25
2017-12-26T09:38:29.386Z,98911.03
2017-12-26T09:39:35.367Z,98915.18
2017-12-26T09:40:41.908Z,98907.95
2017-12-26T09:41:47.890Z,98909.22
2017-12-26T09:42:53.637Z,98906.29
2017-12-26T09:43:59.366Z,98910.71
2017-12-26T09:45:05.107Z,98910.91
2017-12-26T09:46:10.847Z,98907.20
2017-12-26T09:47:16.265Z,98906.91
2017-12-26T09:48:22.752Z,98905.12
2017-12-26T09:49:29.423Z,98906.69
2017-12-26T09:50:35.181Z,98895.52
2017-12-26T09:51:40.930Z,98888.12
2017-12-26T09:52:46.703Z,98894.27
2017-12-26T09:53:53.196Z,98885.80
2017-12-26T09:54:58.945Z,98890.05
2017-12-26T09:56:04.668Z,98893.67
2017-12-26T09:57:10.403Z,98890.11
2017-12-26T09:58:16.197Z,98893.63
2017-12-26T09:59:21.962Z,98885.92
2017-12-26T10:00:28.046Z,98887.55
2017-12-26T10:01:34.263Z,98882.77
2017-12-26T10:02:40.658Z,98888.85
2017-12-26T10:03:46.648Z,98877.27
2017-12-26T10:04:52.744Z,98869.81
2017-12-26T10:05:59.483Z,98869.28
2017-12-26T10:07:05.607Z,98868.70
2017-12-26T10:08:11.696Z,98869.70
2017-12-26T10:09:17.682Z,98873.64
2017-12-26T10:10:23.745Z,98863.92
2017-12-26T10:11:29.953Z,98858.78
2017-12-26T10:12:36.004Z,98863.92
2017-12-26T10:13:42.139Z,98850.30
2017-12-26T10:14:48.253Z,98850.23
2017-12-26T10:15:56.296Z,98847.61
2017-12-26T10:17:02.347Z,98845.46
2017-12-26T10:18:08.253Z,98844.44
2017-12-26T10:19:15.123Z,98836.50
2017-12-26T10:20:22.131Z,98837.45
2017-12-26T10:21:28.080Z,98836.25
2017-12-26T10:22:34.380Z,98825.44
2017-12-26T10:23:40.921Z,98832.70
2017-12-26T10:24:46.664Z,98819.69
2017-12-26T10:25:52.411Z,98835.16
2017-12-26T10:26:58.140Z,98817.34
2017-12-26T10:28:03.905Z,98814.83
2017-12-26T10:29:09.656Z,98815.02
2017-12-26T10:30:15.381Z,98808.09
2017-12-26T10:31:21.159Z,98815.19
2017-12-26T10:32:27.667Z,98807.31
2017-12-26T10:33:33.392Z,98811.98
2017-12-26T10:34:39.121Z,98797.94
2017-12-26T10:35:44.863Z,98807.34
2017-12-26T10:36:50.613Z,98793.64
2017-12-26T10:37:56.355Z,98803.08
2017-12-26T10:39:02.092Z,98807.30
2017-12-26T10:40:07.825Z,98790.29
2017-12-26T10:41:13.552Z,98790.38
2017-12-26T10:42:20.082Z,98799.56
2017-12-26T10:43:25.820Z,98796.98
2017-12-26T10:44:31.541Z,98795.53
2017-12-26T10:45:37.285Z,98784.51
2017-12-26T10:46:43.008Z,98793.75
2017-12-26T10:47:48.765Z,98799.37
2017-12-26T10:48:54.497Z,98798.47
2017-12-26T10:50:00.229Z,98793.64
2017-12-26T10:51:06.834Z,98793.90
2017-12-26T10:52:12.564Z,98782.67
2017-12-26T10:53:18.355Z,98794.06
2017-12-26T10:54:24.453Z,98787.39
2017-12-26T10:55:30.191Z,98794.06
2017-12-26T10:56:35.936Z,98803.61
2017-12-26T10:57:41.683Z,98792.05
2017-12-26T10:58:47.432Z,98788.13
2017-12-26T10:59:53.165Z,98784.23
2017-12-26T11:00:59.185Z,98778.30
2017-12-26T11:02:06.234Z,98771.91
2017-12-26T11:03:12.279Z,98784.38
2017-12-26T11:04:18.534Z,98774.58
2017-12-26T11:05:24.655Z,98769.80
2017-12-26T11:06:32.472Z,98771.59
2017-12-26T11:07:38.542Z,98768.58
2017-12-26T11:08:44.273Z,98767.02
2017-12-26T11:09:50.025Z,98767.59
2017-12-26T11:10:55.755Z,98764.09
2017-12-26T11:12:01.526Z,98763.39
2017-12-26T11:13:07.254Z,98752.58
2017-12-26T11:14:12.999Z,98750.85
2017-12-26T11:15:18.748Z,98759.28
2017-12-26T11:16:25.243Z,98751.74
2017-12-26T11:17:31.012Z,98753.24
2017-12-26T11:18:36.751Z,98749.14
2017-12-26T11:19:42.473Z,98750.72
2017-12-26T11:20:48.234Z,98744.37
2017-12-26T11:21:53.961Z,98747.03
2017-12-26T11:23:00.477Z,98744.29
2017-12-26T11:24:07.958Z,98744.40
2017-12-26T11:25:13.886Z,98736.66
2017-12-26T11:26:19.759Z,98739.08
2017-12-26T11:27:25.501Z,98740.53
2017-12-26T11:28:31.233Z,98746.34
2017-12-26T11:29:37.002Z,98747.81
2017-12-26T11:30:42.744Z,98750.52
2017-12-26T11:31:49.276Z,98750.23
2017-12-26T11:32:55.025Z,98747.31
2017-12-26T11:34:00.751Z,98745.75
2017-12-26T11:35:06.505Z,98750.99
2017-12-26T11:36:14.227Z,98745.47
2017-12-26T11:37:20.885Z,98740.28
2017-12-26T11:38:27.437Z,98744.86
2017-12-26T11:39:33.963Z,98738.04
2017-12-26T11:40:39.726Z,98731.97
2017-12-26T11:41:46.234Z,98726.17
2017-12-26T11:42:53.282Z,98731.95
2017-12-26T11:44:00.422Z,98722.03
2017-12-26T11:45:06.257Z,98727.20
2017-12-26T11:46:12.003Z,98720.11
2017-12-26T11:47:17.879Z,98719.75
2017-12-26T11:48:24.412Z,98734.95
2017-12-26T11:49:30.192Z,98729.94
2017-12-26T11:50:38.394Z,98729.94
2017-12-26T11:51:44.159Z,98717.30
2017-12-26T11:52:49.889Z,98716.29
2017-12-26T11:53:55.642Z,98713.98
2017-12-26T11:55:01.393Z,98708.53
2017-12-26T11:56:07.121Z,98704.13
2017-12-26T11:57:12.878Z,98699.61
2017-12-26T11:58:18.606Z,98703.48
2017-12-26T11:59:24.394Z,98704.16
2017-12-26T12:00:30.134Z,98697.34
2017-12-26T12:01:35.884Z,98691.82
2017-12-26T12:02:42.396Z,98686.52
2017-12-26T12:03:48.143Z,98694.86
2017-12-26T12:04:53.912Z,98687.21
2017-12-26T12:05:59.656Z,98685.57
2017-12-26T12:07:06.157Z,98686.04
2017-12-26T12:08:11.936Z,98682.39
2017-12-26T12:09:17.846Z,98694.60
2017-12-26T12:10:23.597Z,98694.23
2017-12-26T12:11:29.343Z,98699.68
2017-12-26T12:12:35.086Z,98689.20
2017-12-26T12:13:40.827Z,98689.98
2017-12-26T12:14:46.571Z,98681.28
2017-12-26T12:15:52.317Z,98678.82
2017-12-26T12:16:58.101Z,98676.56
2017-12-26T12:18:04.590Z,98667.20
2017-12-26T12:19:10.331Z,98665.30
2017-12-26T12:20:16.077Z,98664.83
2017-12-26T12:21:21.847Z,98671.13
2017-12-26T12:22:27.569Z,98671.91
2017-12-26T12:23:33.324Z,98680.14
2017-12-26T12:24:39.092Z,98672.39
2017-12-26T12:25:44.816Z,98678.16
2017-12-26T12:26:50.572Z,98689.13
2017-12-26T12:27:56.295Z,98678.89
2017-12-26T12:29:02.044Z,98671.80
2017-12-26T12:30:07.778Z,98674.53
2017-12-26T12:31:13.520Z,98668.20
2017-12-26T12:32:19.270Z,98669.88
2017-12-26T12:33:25.240Z,98667.36
2017-12-26T12:34:30.989Z,98660.11
2017-12-26T12:35:36.743Z,98667.31
2017-12-26T12:36:43.237Z,98662.54
2017-12-26T12:37:49.008Z,98669.45
2017-12-26T12:38:55.434Z,98672.86
2017-12-26T12:40:01.988Z,98669.66
2017-12-26T12:41:07.743Z,98667.92
2017-12-26T12:42:13.496Z,98673.70
2017-12-26T12:43:19.258Z,98664.20
2017-12-26T12:44:25.019Z,98669.30
2017-12-26T12:45:31.514Z,98663.16
2017-12-26T12:46:37.238Z,98666.25
2017-12-26T12:47:42.999Z,98662.03
2017-12-26T12:48:48.764Z,98667.44
2017-12-26T12:49:54.489Z,98675.94
2017-12-26T12:51:00.218Z,98680.75
2017-12-26T12:52:05.941Z,98673.14
2017-12-26T12:53:11.685Z,98679.02
2017-12-26T12:54:17.446Z,98675.48